sensor_id;sensor_type;location;lat;lon;timestamp;pressure;altitude;pressure_sealevel;temperature;humidity
56604;BME280;42486;47.478;19.036;2023-02-10T00:00:16;102372.97;;;-5.27;100.00
56604;BME280;42486;47.478;19.036;2023-02-10T00:03:20;102375.41;;;-5.32;100.00
56604;BME280;42486;47.478;19.036;2023-02-10T00:06:25;102379.97;;;-5.19;100.00
56604;BME280;42486;47.478;19.036;2023-02-10T00:09:29;102380.69;;;-5.24;100.00
56604;BME280;42486;47.478;19.036;2023-02-10T00:12:36;102384.00;;;-5.28;100.00
56604;BME280;42486;47.478;19.036;2023-02-10T00:15:41;102387.28;;;-5.33;100.00
56604;BME280;42486;47.478;19.036;2023-02-10T00:18:44;102389.72;;;-5.37;100.00
56604;BME280;42486;47.478;19.036;2023-02-10T00:21:47;102390.53;;;-5.40;100.00
56604;BME280;42486;47.478;19.036;2023-02-10T00:24:51;102386.37;;;-5.35;100.00
56604;BME280;42486;47.478;19.036;2023-02-10T00:27:57;102388.25;;;-5.27;100.00
56604;BME280;42486;47.478;19.036;2023-02-10T00:31:05;102383.31;;;-5.21;100.00
56604;BME280;42486;47.478;19.036;2023-02-10T00:34:14;102400.22;;;-5.25;100.00
56604;BME280;42486;47.478;19.036;2023-02-10T00:37:19;102390.84;;;-5.26;100.00
56604;BME280;42486;47.478;19.036;2023-02-10T00:40:23;102394.19;;;-5.28;100.00
56604;BME280;42486;47.478;19.036;2023-02-10T00:43:26;102394.12;;;-5.30;100.00
56604;BME280;42486;47.478;19.036;2023-02-10T00:46:30;102389.87;;;-5.31;100.00
56604;BME280;42486;47.478;19.036;2023-02-10T00:49:33;102389.56;;;-5.43;100.00
56604;BME280;42486;47.478;19.036;2023-02-10T00:52:37;102397.97;;;-5.47;100.00
56604;BME280;42486;47.478;19.036;2023-02-10T00:55:42;102392.69;;;-5.54;100.00
56604;BME280;42486;47.478;19.036;2023-02-10T00:58:45;102398.41;;;-5.62;100.00
56604;BME280;42486;47.478;19.036;2023-02-10T01:01:48;102395.81;;;-5.65;100.00
56604;BME280;42486;47.478;19.036;2023-02-10T01:04:52;102393.00;;;-5.75;100.00
56604;BME280;42486;47.478;19.036;2023-02-10T01:07:55;102389.50;;;-5.78;100.00
56604;BME280;42486;47.478;19.036;2023-02-10T01:11:06;102377.72;;;-5.75;100.00
56604;BME280;42486;47.478;19.036;2023-02-10T01:14:11;102378.06;;;-5.62;100.00
56604;BME280;42486;47.478;19.036;2023-02-10T01:17:14;102380.47;;;-5.67;100.00
56604;BME280;42486;47.478;19.036;2023-02-10T01:20:19;102367.81;;;-5.64;100.00
56604;BME280;42486;47.478;19.036;2023-02-10T01:23:24;102360.28;;;-5.61;100.00
56604;BME280;42486;47.478;19.036;2023-02-10T01:26:29;102365.47;;;-5.56;100.00
56604;BME280;42486;47.478;19.036;2023-02-10T01:29:32;102371.19;;;-5.66;100.00
56604;BME280;42486;47.478;19.036;2023-02-10T01:32:39;102365.13;;;-5.70;100.00
56604;BME280;42486;47.478;19.036;2023-02-10T01:35:44;102366.66;;;-5.77;100.00
56604;BME280;42486;47.478;19.036;2023-02-10T01:38:48;102369.81;;;-5.85;100.00
56604;BME280;42486;47.478;19.036;2023-02-10T01:41:52;102363.78;;;-5.89;100.00
56604;BME280;42486;47.478;19.036;2023-02-10T01:45:06;102368.94;;;-5.87;100.00
56604;BME280;42486;47.478;19.036;2023-02-10T01:48:15;102355.66;;;-5.76;100.00
56604;BME280;42486;47.478;19.036;2023-02-10T01:51:23;102352.81;;;-5.86;100.00
56604;BME280;42486;47.478;19.036;2023-02-10T01:54:35;102354.25;;;-5.97;100.00
56604;BME280;42486;47.478;19.036;2023-02-10T01:57:42;102352.41;;;-6.03;100.00
56604;BME280;42486;47.478;19.036;2023-02-10T02:00:46;102355.44;;;-5.85;100.00
56604;BME280;42486;47.478;19.036;2023-02-10T02:03:50;102350.16;;;-5.91;100.00
56604;BME280;42486;47.478;19.036;2023-02-10T02:06:56;102348.31;;;-5.98;100.00
56604;BME280;42486;47.478;19.036;2023-02-10T02:10:01;102360.12;;;-6.00;100.00
56604;BME280;42486;47.478;19.036;2023-02-10T02:13:11;102348.13;;;-6.06;100.00
56604;BME280;42486;47.478;19.036;2023-02-10T02:16:26;102362.37;;;-6.11;100.00
56604;BME280;42486;47.478;19.036;2023-02-10T02:19:46;102363.44;;;-6.03;100.00
56604;BME280;42486;47.478;19.036;2023-02-10T02:23:35;102355.13;;;-5.97;100.00
56604;BME280;42486;47.478;19.036;2023-02-10T02:37:02;102348.41;;;-6.25;100.00
56604;BME280;42486;47.478;19.036;2023-02-10T02:40:07;102348.31;;;-6.30;100.00
56604;BME280;42486;47.478;19.036;2023-02-10T02:43:11;102344.00;;;-6.31;100.00
56604;BME280;42486;47.478;19.036;2023-02-10T02:47:00;102348.22;;;-6.33;100.00
56604;BME280;42486;47.478;19.036;2023-02-10T02:49:48;102343.94;;;-6.34;100.00
56604;BME280;42486;47.478;19.036;2023-02-10T02:53:06;102343.00;;;-6.37;100.00
56604;BME280;42486;47.478;19.036;2023-02-10T02:56:15;102340.84;;;-6.24;100.00
56604;BME280;42486;47.478;19.036;2023-02-10T03:02:46;102344.22;;;-6.25;100.00
56604;BME280;42486;47.478;19.036;2023-02-10T03:05:51;102348.25;;;-6.31;100.00
56604;BME280;42486;47.478;19.036;2023-02-10T03:08:54;102344.00;;;-6.32;100.00
56604;BME280;42486;47.478;19.036;2023-02-10T03:11:58;102348.09;;;-6.36;100.00
56604;BME280;42486;47.478;19.036;2023-02-10T03:15:02;102347.16;;;-6.39;100.00
56604;BME280;42486;47.478;19.036;2023-02-10T03:18:08;102348.09;;;-6.37;100.00
56604;BME280;42486;47.478;19.036;2023-02-10T03:21:13;102345.00;;;-6.26;100.00
56604;BME280;42486;47.478;19.036;2023-02-10T03:24:19;102346.53;;;-6.32;100.00
56604;BME280;42486;47.478;19.036;2023-02-10T03:27:24;102346.56;;;-6.31;100.00
56604;BME280;42486;47.478;19.036;2023-02-10T03:30:33;102353.59;;;-6.22;100.00
56604;BME280;42486;47.478;19.036;2023-02-10T03:33:36;102350.72;;;-6.34;100.00
56604;BME280;42486;47.478;19.036;2023-02-10T03:36:40;102347.16;;;-6.39;100.00
56604;BME280;42486;47.478;19.036;2023-02-10T03:39:43;102350.41;;;-6.45;100.00
56604;BME280;42486;47.478;19.036;2023-02-10T03:42:48;102343.16;;;-6.31;100.00
56604;BME280;42486;47.478;19.036;2023-02-10T03:45:52;102334.75;;;-6.29;100.00
56604;BME280;42486;47.478;19.036;2023-02-10T03:49:01;102334.03;;;-6.25;100.00
56604;BME280;42486;47.478;19.036;2023-02-10T03:52:04;102347.41;;;-6.30;100.00
56604;BME280;42486;47.478;19.036;2023-02-10T03:55:13;102348.63;;;-6.48;100.00
56604;BME280;42486;47.478;19.036;2023-02-10T03:58:29;102339.25;;;-6.50;100.00
56604;BME280;42486;47.478;19.036;2023-02-10T04:01:36;102329.38;;;-6.39;100.00
56604;BME280;42486;47.478;19.036;2023-02-10T04:04:44;102323.88;;;-6.23;100.00
56604;BME280;42486;47.478;19.036;2023-02-10T04:07:48;102320.53;;;-6.22;100.00
56604;BME280;42486;47.478;19.036;2023-02-10T04:10:51;102317.00;;;-6.27;100.00
56604;BME280;42486;47.478;19.036;2023-02-10T04:13:54;102314.72;;;-6.48;100.00
56604;BME280;42486;47.478;19.036;2023-02-10T04:16:58;102321.19;;;-6.59;100.00
56604;BME280;42486;47.478;19.036;2023-02-10T04:20:02;102306.03;;;-6.56;100.00
56604;BME280;42486;47.478;19.036;2023-02-10T04:23:11;102308.72;;;-6.50;100.00
56604;BME280;42486;47.478;19.036;2023-02-10T04:26:18;102312.19;;;-6.48;100.00
56604;BME280;42486;47.478;19.036;2023-02-10T04:29:24;102316.81;;;-6.63;100.00
56604;BME280;42486;47.478;19.036;2023-02-10T04:32:31;102314.91;;;-6.71;100.00
56604;BME280;42486;47.478;19.036;2023-02-10T04:35:37;102315.06;;;-6.66;100.00
56604;BME280;42486;47.478;19.036;2023-02-10T04:38:40;102314.87;;;-6.72;100.00
56604;BME280;42486;47.478;19.036;2023-02-10T04:41:44;102328.59;;;-6.67;100.00
56604;BME280;42486;47.478;19.036;2023-02-10T04:44:53;102330.94;;;-6.73;100.00
56604;BME280;42486;47.478;19.036;2023-02-10T04:48:00;102336.06;;;-6.72;100.00
56604;BME280;42486;47.478;19.036;2023-02-10T04:51:07;102329.13;;;-6.77;100.00
56604;BME280;42486;47.478;19.036;2023-02-10T04:54:14;102333.16;;;-6.84;100.00
56604;BME280;42486;47.478;19.036;2023-02-10T04:57:18;102348.37;;;-6.85;100.00
56604;BME280;42486;47.478;19.036;2023-02-10T05:00:22;102353.56;;;-6.81;100.00
56604;BME280;42486;47.478;19.036;2023-02-10T05:03:28;102350.31;;;-6.77;100.00
56604;BME280;42486;47.478;19.036;2023-02-10T05:06:37;102354.56;;;-6.77;100.00
56604;BME280;42486;47.478;19.036;2023-02-10T05:09:42;102360.56;;;-6.74;100.00
56604;BME280;42486;47.478;19.036;2023-02-10T05:12:46;102360.72;;;-6.69;100.00
56604;BME280;42486;47.478;19.036;2023-02-10T05:15:57;102354.69;;;-6.73;100.00
56604;BME280;42486;47.478;19.036;2023-02-10T05:19:02;102371.44;;;-6.49;100.00
56604;BME280;42486;47.478;19.036;2023-02-10T05:22:04;102367.50;;;-6.39;100.00
56604;BME280;42486;47.478;19.036;2023-02-10T05:25:11;102358.34;;;-6.34;100.00
56604;BME280;42486;47.478;19.036;2023-02-10T05:28:16;102367.94;;;-6.24;100.00
56604;BME280;42486;47.478;19.036;2023-02-10T05:31:25;102373.94;;;-6.22;100.00
56604;BME280;42486;47.478;19.036;2023-02-10T05:34:32;102372.03;;;-6.29;100.00
56604;BME280;42486;47.478;19.036;2023-02-10T05:37:46;102377.97;;;-6.29;100.00
56604;BME280;42486;47.478;19.036;2023-02-10T05:40:56;102378.38;;;-6.15;100.00
56604;BME280;42486;47.478;19.036;2023-02-10T05:44:03;102384.38;;;-6.13;100.00
56604;BME280;42486;47.478;19.036;2023-02-10T05:47:07;102379.22;;;-6.14;100.00
56604;BME280;42486;47.478;19.036;2023-02-10T05:50:11;102389.22;;;-6.22;100.00
56604;BME280;42486;47.478;19.036;2023-02-10T05:53:17;102388.16;;;-6.29;100.00
56604;BME280;42486;47.478;19.036;2023-02-10T05:56:22;102383.22;;;-6.24;100.00
56604;BME280;42486;47.478;19.036;2023-02-10T05:59:29;102384.69;;;-6.32;100.00
56604;BME280;42486;47.478;19.036;2023-02-10T06:02:33;102374.66;;;-6.56;100.00
56604;BME280;42486;47.478;19.036;2023-02-10T06:05:45;102373.56;;;-6.65;100.00
56604;BME280;42486;47.478;19.036;2023-02-10T06:08:52;102382.06;;;-6.64;100.00
56604;BME280;42486;47.478;19.036;2023-02-10T06:12:00;102380.38;;;-6.63;100.00
56604;BME280;42486;47.478;19.036;2023-02-10T06:15:09;102380.53;;;-6.57;100.00
56604;BME280;42486;47.478;19.036;2023-02-10T06:18:15;102385.69;;;-6.56;100.00
56604;BME280;42486;47.478;19.036;2023-02-10T06:21:20;102376.28;;;-6.58;100.00
56604;BME280;42486;47.478;19.036;2023-02-10T06:24:26;102379.66;;;-6.59;100.00
56604;BME280;42486;47.478;19.036;2023-02-10T06:27:45;102379.78;;;-6.55;100.00
56604;BME280;42486;47.478;19.036;2023-02-10T06:30:51;102383.59;;;-6.40;100.00
56604;BME280;42486;47.478;19.036;2023-02-10T06:33:59;102386.69;;;-6.21;100.00
56604;BME280;42486;47.478;19.036;2023-02-10T06:37:03;102390.66;;;-6.00;100.00
56604;BME280;42486;47.478;19.036;2023-02-10T06:40:11;102395.81;;;-5.97;100.00
56604;BME280;42486;47.478;19.036;2023-02-10T06:43:16;102401.84;;;-5.93;100.00
56604;BME280;42486;47.478;19.036;2023-02-10T06:46:25;102427.75;;;-5.77;100.00
56604;BME280;42486;47.478;19.036;2023-02-10T06:49:38;102427.13;;;-5.68;100.00
56604;BME280;42486;47.478;19.036;2023-02-10T06:52:45;102435.03;;;-5.57;100.00
56604;BME280;42486;47.478;19.036;2023-02-10T06:55:57;102442.12;;;-5.47;100.00
56604;BME280;42486;47.478;19.036;2023-02-10T06:59:03;102437.41;;;-5.32;100.00
56604;BME280;42486;47.478;19.036;2023-02-10T07:02:10;102430.31;;;-5.10;100.00
56604;BME280;42486;47.478;19.036;2023-02-10T07:05:14;102424.22;;;-4.80;100.00
56604;BME280;42486;47.478;19.036;2023-02-10T07:08:19;102419.59;;;-4.59;100.00
56604;BME280;42486;47.478;19.036;2023-02-10T07:11:25;102429.31;;;-4.43;100.00
56604;BME280;42486;47.478;19.036;2023-02-10T07:14:29;102428.78;;;-4.28;100.00
56604;BME280;42486;47.478;19.036;2023-02-10T07:17:33;102442.16;;;-3.97;100.00
56604;BME280;42486;47.478;19.036;2023-02-10T07:20:39;102437.25;;;-3.88;99.55
56604;BME280;42486;47.478;19.036;2023-02-10T07:23:42;102445.03;;;-3.82;99.26
56604;BME280;42486;47.478;19.036;2023-02-10T07:26:45;102435.19;;;-3.62;97.59
56604;BME280;42486;47.478;19.036;2023-02-10T07:29:48;102445.47;;;-3.59;91.59
56604;BME280;42486;47.478;19.036;2023-02-10T07:32:52;102449.09;;;-3.46;90.45
56604;BME280;42486;47.478;19.036;2023-02-10T07:36:00;102453.03;;;-3.63;89.93
56604;BME280;42486;47.478;19.036;2023-02-10T07:39:04;102449.88;;;-3.50;92.07
56604;BME280;42486;47.478;19.036;2023-02-10T07:42:08;102443.87;;;-3.52;90.34
56604;BME280;42486;47.478;19.036;2023-02-10T07:45:11;102436.81;;;-3.18;90.34
56604;BME280;42486;47.478;19.036;2023-02-10T07:48:13;102426.09;;;-2.97;87.91
56604;BME280;42486;47.478;19.036;2023-02-10T07:51:17;102426.22;;;-2.88;87.66
56604;BME280;42486;47.478;19.036;2023-02-10T07:54:21;102432.31;;;-2.80;85.61
56604;BME280;42486;47.478;19.036;2023-02-10T07:57:30;102440.19;;;-2.68;86.08
56604;BME280;42486;47.478;19.036;2023-02-10T08:00:33;102442.16;;;-2.48;86.53
56604;BME280;42486;47.478;19.036;2023-02-10T08:03:38;102446.53;;;-2.41;86.38
56604;BME280;42486;47.478;19.036;2023-02-10T08:06:41;102444.88;;;-2.37;84.05
56604;BME280;42486;47.478;19.036;2023-02-10T08:09:45;102443.41;;;-2.18;85.61
56604;BME280;42486;47.478;19.036;2023-02-10T08:12:49;102454.63;;;-2.09;83.93
56604;BME280;42486;47.478;19.036;2023-02-10T08:16:02;102462.28;;;-2.10;81.40
56604;BME280;42486;47.478;19.036;2023-02-10T08:19:05;102468.06;;;-2.25;81.94
56604;BME280;42486;47.478;19.036;2023-02-10T08:22:10;102464.84;;;-2.12;84.59
56604;BME280;42486;47.478;19.036;2023-02-10T08:25:13;102466.03;;;-1.84;83.65
56604;BME280;42486;47.478;19.036;2023-02-10T08:28:18;102468.84;;;-1.64;82.98
56604;BME280;42486;47.478;19.036;2023-02-10T08:31:22;102459.59;;;-1.46;81.95
56604;BME280;42486;47.478;19.036;2023-02-10T08:34:27;102461.41;;;-1.41;81.48
56604;BME280;42486;47.478;19.036;2023-02-10T08:37:33;102461.44;;;-1.33;82.06
56604;BME280;42486;47.478;19.036;2023-02-10T08:40:37;102467.63;;;-1.13;81.54
56604;BME280;42486;47.478;19.036;2023-02-10T08:43:40;102471.09;;;-1.09;79.78
56604;BME280;42486;47.478;19.036;2023-02-10T08:46:42;102459.25;;;-0.95;80.85
56604;BME280;42486;47.478;19.036;2023-02-10T08:49:46;102463.75;;;-0.64;78.07
56604;BME280;42486;47.478;19.036;2023-02-10T08:52:51;102461.31;;;-0.40;78.29
56604;BME280;42486;47.478;19.036;2023-02-10T08:55:59;102457.06;;;-0.35;76.32
56604;BME280;42486;47.478;19.036;2023-02-10T08:59:06;102467.41;;;-0.24;76.62
56604;BME280;42486;47.478;19.036;2023-02-10T09:02:14;102462.38;;;-0.06;75.51
56604;BME280;42486;47.478;19.036;2023-02-10T09:05:18;102455.53;;;0.03;76.12
56604;BME280;42486;47.478;19.036;2023-02-10T09:08:25;102461.66;;;0.28;76.39
56604;BME280;42486;47.478;19.036;2023-02-10T09:11:32;102453.94;;;0.34;74.73
56604;BME280;42486;47.478;19.036;2023-02-10T09:14:37;102459.12;;;0.44;76.39
56604;BME280;42486;47.478;19.036;2023-02-10T09:17:44;102454.88;;;0.62;74.00
56604;BME280;42486;47.478;19.036;2023-02-10T09:20:48;102466.06;;;0.75;72.53
56604;BME280;42486;47.478;19.036;2023-02-10T09:23:56;102450.63;;;0.98;73.06
56604;BME280;42486;47.478;19.036;2023-02-10T09:27:01;102452.34;;;1.05;71.32
56604;BME280;42486;47.478;19.036;2023-02-10T09:30:08;102454.06;;;1.15;70.64
56604;BME280;42486;47.478;19.036;2023-02-10T09:33:11;102460.91;;;1.25;69.58
56604;BME280;42486;47.478;19.036;2023-02-10T09:36:15;102455.72;;;1.45;70.25
56604;BME280;42486;47.478;19.036;2023-02-10T09:39:20;102461.75;;;1.52;68.78
56604;BME280;42486;47.478;19.036;2023-02-10T09:42:30;102457.37;;;1.74;68.73
56604;BME280;42486;47.478;19.036;2023-02-10T09:45:37;102459.06;;;1.90;68.48
56604;BME280;42486;47.478;19.036;2023-02-10T09:52:22;102465.84;;;2.16;65.94
56604;BME280;42486;47.478;19.036;2023-02-10T09:55:33;102469.25;;;2.18;63.29
56604;BME280;42486;47.478;19.036;2023-02-10T09:58:42;102464.13;;;2.12;64.13
56604;BME280;42486;47.478;19.036;2023-02-10T10:01:48;102470.09;;;2.15;61.75
56604;BME280;42486;47.478;19.036;2023-02-10T10:04:52;102454.66;;;2.14;60.37
56604;BME280;42486;47.478;19.036;2023-02-10T10:07:57;102461.44;;;2.29;62.53
56604;BME280;42486;47.478;19.036;2023-02-10T10:11:04;102453.84;;;2.10;60.39
56604;BME280;42486;47.478;19.036;2023-02-10T10:14:20;102452.84;;;2.31;62.91
56604;BME280;42486;47.478;19.036;2023-02-10T10:24:12;102458.78;;;2.44;59.87
56604;BME280;42486;47.478;19.036;2023-02-10T10:30:30;102454.31;;;2.77;60.36
56604;BME280;42486;47.478;19.036;2023-02-10T10:33:40;102452.59;;;2.71;59.00
56604;BME280;42486;47.478;19.036;2023-02-10T10:36:48;102453.44;;;2.73;58.04
56604;BME280;42486;47.478;19.036;2023-02-10T10:39:57;102450.75;;;2.92;58.87
56604;BME280;42486;47.478;19.036;2023-02-10T10:43:02;102441.25;;;2.95;58.68
56604;BME280;42486;47.478;19.036;2023-02-10T10:46:13;102435.19;;;2.98;58.18
56604;BME280;42486;47.478;19.036;2023-02-10T10:49:18;102428.94;;;3.23;58.04
56604;BME280;42486;47.478;19.036;2023-02-10T10:52:27;102429.78;;;3.25;56.96
56604;BME280;42486;47.478;19.036;2023-02-10T10:55:34;102426.41;;;3.20;53.97
56604;BME280;42486;47.478;19.036;2023-02-10T10:58:42;102421.38;;;3.06;55.40
56604;BME280;42486;47.478;19.036;2023-02-10T11:01:48;102413.66;;;3.03;55.60
56604;BME280;42486;47.478;19.036;2023-02-10T11:05:04;102411.91;;;3.04;55.54
56604;BME280;42486;47.478;19.036;2023-02-10T11:08:07;102401.59;;;3.04;54.66
56604;BME280;42486;47.478;19.036;2023-02-10T11:14:40;102383.16;;;3.39;55.90
56604;BME280;42486;47.478;19.036;2023-02-10T11:17:45;102374.72;;;3.23;53.85
56604;BME280;42486;47.478;19.036;2023-02-10T11:20:53;102377.31;;;3.20;54.14
56604;BME280;42486;47.478;19.036;2023-02-10T11:23:58;102377.41;;;3.11;55.19
56604;BME280;42486;47.478;19.036;2023-02-10T11:27:03;102382.50;;;3.20;54.79
56604;BME280;42486;47.478;19.036;2023-02-10T11:30:22;102386.63;;;3.37;55.06
56604;BME280;42486;47.478;19.036;2023-02-10T11:33:29;102384.28;;;3.11;53.62
56604;BME280;42486;47.478;19.036;2023-02-10T11:36:36;102393.59;;;3.30;55.40
56604;BME280;42486;47.478;19.036;2023-02-10T11:39:41;102388.25;;;3.47;55.08
56604;BME280;42486;47.478;19.036;2023-02-10T11:42:50;102385.56;;;3.55;54.83
56604;BME280;42486;47.478;19.036;2023-02-10T11:45:57;102384.56;;;3.66;54.00
56604;BME280;42486;47.478;19.036;2023-02-10T11:49:03;102376.75;;;3.72;54.08
56604;BME280;42486;47.478;19.036;2023-02-10T11:52:08;102365.47;;;3.77;53.41
56604;BME280;42486;47.478;19.036;2023-02-10T11:55:12;102365.28;;;3.92;54.80
56604;BME280;42486;47.478;19.036;2023-02-10T12:01:50;102348.78;;;4.01;51.55
56604;BME280;42486;47.478;19.036;2023-02-10T12:11:19;102331.63;;;3.95;50.43
56604;BME280;42486;47.478;19.036;2023-02-10T12:28:19;102310.03;;;3.97;53.08
56604;BME280;42486;47.478;19.036;2023-02-10T12:31:18;102309.19;;;3.95;53.23
56604;BME280;42486;47.478;19.036;2023-02-10T12:34:32;102305.03;;;3.85;52.63
56604;BME280;42486;47.478;19.036;2023-02-10T12:54:21;102288.13;;;3.63;51.59
56604;BME280;42486;47.478;19.036;2023-02-10T12:57:45;102289.62;;;3.78;52.99
56604;BME280;42486;47.478;19.036;2023-02-10T13:00:51;102288.63;;;3.89;52.28
56604;BME280;42486;47.478;19.036;2023-02-10T13:04:03;102292.94;;;3.89;52.06
56604;BME280;42486;47.478;19.036;2023-02-10T13:07:18;102294.69;;;3.87;51.24
56604;BME280;42486;47.478;19.036;2023-02-10T13:10:40;102303.31;;;3.86;51.65
56604;BME280;42486;47.478;19.036;2023-02-10T13:13:48;102311.00;;;3.92;51.74
56604;BME280;42486;47.478;19.036;2023-02-10T13:16:56;102311.78;;;3.95;53.56
56604;BME280;42486;47.478;19.036;2023-02-10T13:20:26;102301.41;;;3.98;52.51
56604;BME280;42486;47.478;19.036;2023-02-10T13:36:24;102281.59;;;3.96;52.75
56604;BME280;42486;47.478;19.036;2023-02-10T13:39:32;102286.72;;;4.01;52.03
56604;BME280;42486;47.478;19.036;2023-02-10T13:42:36;102283.16;;;4.08;52.23
56604;BME280;42486;47.478;19.036;2023-02-10T13:45:48;102280.47;;;4.14;52.54
56604;BME280;42486;47.478;19.036;2023-02-10T13:48:52;102279.62;;;4.15;53.25
56604;BME280;42486;47.478;19.036;2023-02-10T13:52:01;102283.06;;;4.15;53.67
56604;BME280;42486;47.478;19.036;2023-02-10T14:01:29;102281.44;;;4.08;51.75
56604;BME280;42486;47.478;19.036;2023-02-10T14:07:40;102277.75;;;4.23;51.84
56604;BME280;42486;47.478;19.036;2023-02-10T14:10:55;102278.44;;;4.33;51.90
56604;BME280;42486;47.478;19.036;2023-02-10T14:14:00;102286.12;;;4.39;51.89
56604;BME280;42486;47.478;19.036;2023-02-10T14:20:22;102284.69;;;4.19;52.71
56604;BME280;42486;47.478;19.036;2023-02-10T14:23:26;102284.13;;;4.02;52.68
56604;BME280;42486;47.478;19.036;2023-02-10T14:26:31;102283.12;;;4.09;52.26
56604;BME280;42486;47.478;19.036;2023-02-10T14:29:39;102284.00;;;4.10;52.80
56604;BME280;42486;47.478;19.036;2023-02-10T14:32:48;102285.69;;;4.11;53.01
56604;BME280;42486;47.478;19.036;2023-02-10T14:35:53;102294.44;;;4.04;53.52
56604;BME280;42486;47.478;19.036;2023-02-10T14:38:59;102292.09;;;3.85;53.92
56604;BME280;42486;47.478;19.036;2023-02-10T14:42:10;102285.38;;;3.73;54.43
56604;BME280;42486;47.478;19.036;2023-02-10T14:45:22;102288.13;;;3.63;54.29
56604;BME280;42486;47.478;19.036;2023-02-10T14:48:28;102276.19;;;3.52;54.62
56604;BME280;42486;47.478;19.036;2023-02-10T14:51:37;102277.19;;;3.44;54.29
56604;BME280;42486;47.478;19.036;2023-02-10T14:54:41;102287.66;;;3.33;55.33
56604;BME280;42486;47.478;19.036;2023-02-10T14:57:45;102283.41;;;3.27;57.37
56604;BME280;42486;47.478;19.036;2023-02-10T15:00:56;102280.81;;;3.27;56.42
56604;BME280;42486;47.478;19.036;2023-02-10T15:04:03;102283.47;;;3.23;56.86
56604;BME280;42486;47.478;19.036;2023-02-10T15:07:16;102281.84;;;3.13;56.96
56604;BME280;42486;47.478;19.036;2023-02-10T15:10:33;102279.38;;;3.02;58.48
56604;BME280;42486;47.478;19.036;2023-02-10T15:13:45;102280.31;;;2.95;57.18
56604;BME280;42486;47.478;19.036;2023-02-10T15:16:58;102286.56;;;2.75;57.88
56604;BME280;42486;47.478;19.036;2023-02-10T15:20:23;102290.09;;;2.67;59.03
56604;BME280;42486;47.478;19.036;2023-02-10T15:23:34;102290.16;;;2.59;59.03
56604;BME280;42486;47.478;19.036;2023-02-10T15:26:43;102289.41;;;2.46;59.06
56604;BME280;42486;47.478;19.036;2023-02-10T15:29:48;102293.75;;;2.39;59.31
56604;BME280;42486;47.478;19.036;2023-02-10T15:33:01;102287.81;;;2.30;59.47
56604;BME280;42486;47.478;19.036;2023-02-10T15:36:33;102282.72;;;2.20;60.06
56604;BME280;42486;47.478;19.036;2023-02-10T15:39:53;102283.66;;;2.12;60.62
56604;BME280;42486;47.478;19.036;2023-02-10T15:43:20;102276.00;;;2.01;60.88
56604;BME280;42486;47.478;19.036;2023-02-10T15:46:32;102277.72;;;1.99;63.19
56604;BME280;42486;47.478;19.036;2023-02-10T15:49:40;102288.97;;;1.86;62.66
56604;BME280;42486;47.478;19.036;2023-02-10T15:52:55;102290.78;;;1.70;63.41
56604;BME280;42486;47.478;19.036;2023-02-10T15:55:59;102297.66;;;1.65;62.71
56604;BME280;42486;47.478;19.036;2023-02-10T15:59:04;102301.13;;;1.59;63.57
56604;BME280;42486;47.478;19.036;2023-02-10T16:02:10;102298.59;;;1.53;64.21
56604;BME280;42486;47.478;19.036;2023-02-10T16:05:15;102296.91;;;1.47;64.31
56604;BME280;42486;47.478;19.036;2023-02-10T16:08:20;102304.69;;;1.37;65.13
56604;BME280;42486;47.478;19.036;2023-02-10T16:11:25;102309.03;;;1.25;65.51
56604;BME280;42486;47.478;19.036;2023-02-10T16:14:34;102316.75;;;1.19;65.74
56604;BME280;42486;47.478;19.036;2023-02-10T16:17:39;102309.06;;;1.10;66.77
56604;BME280;42486;47.478;19.036;2023-02-10T16:20:45;102313.34;;;1.00;66.64
56604;BME280;42486;47.478;19.036;2023-02-10T16:23:50;102313.38;;;0.93;67.63
56604;BME280;42486;47.478;19.036;2023-02-10T16:26:55;102312.56;;;0.83;68.99
56604;BME280;42486;47.478;19.036;2023-02-10T16:30:00;102318.56;;;0.68;69.13
56604;BME280;42486;47.478;19.036;2023-02-10T16:33:05;102311.72;;;0.59;70.34
56604;BME280;42486;47.478;19.036;2023-02-10T16:36:11;102315.97;;;0.53;70.62
56604;BME280;42486;47.478;19.036;2023-02-10T16:39:17;102316.84;;;0.44;71.27
56604;BME280;42486;47.478;19.036;2023-02-10T16:42:21;102313.41;;;0.39;72.18
56604;BME280;42486;47.478;19.036;2023-02-10T16:45:25;102314.28;;;0.44;72.76
56604;BME280;42486;47.478;19.036;2023-02-10T16:48:29;102309.13;;;0.32;72.44
56604;BME280;42486;47.478;19.036;2023-02-10T16:51:33;102313.41;;;0.19;72.89
56604;BME280;42486;47.478;19.036;2023-02-10T16:54:37;102320.25;;;0.11;73.50
56604;BME280;42486;47.478;19.036;2023-02-10T16:57:41;102325.37;;;0.02;73.87
56604;BME280;42486;47.478;19.036;2023-02-10T17:00:48;102328.78;;;-0.04;73.56
56604;BME280;42486;47.478;19.036;2023-02-10T17:03:58;102324.47;;;-0.11;74.00
56604;BME280;42486;47.478;19.036;2023-02-10T17:07:04;102321.87;;;-0.22;74.65
56604;BME280;42486;47.478;19.036;2023-02-10T17:10:28;102319.31;;;-0.28;75.50
56604;BME280;42486;47.478;19.036;2023-02-10T17:13:31;102321.84;;;-0.30;76.89
56604;BME280;42486;47.478;19.036;2023-02-10T17:16:35;102316.72;;;-0.36;77.94
56604;BME280;42486;47.478;19.036;2023-02-10T17:19:40;102325.25;;;-0.45;77.49
56604;BME280;42486;47.478;19.036;2023-02-10T17:22:46;102335.47;;;-0.52;78.66
56604;BME280;42486;47.478;19.036;2023-02-10T17:25:50;102330.34;;;-0.52;78.76
56604;BME280;42486;47.478;19.036;2023-02-10T17:28:54;102327.75;;;-0.58;79.99
56604;BME280;42486;47.478;19.036;2023-02-10T17:32:00;102326.84;;;-0.65;80.08
56604;BME280;42486;47.478;19.036;2023-02-10T17:35:05;102322.53;;;-0.72;80.51
56604;BME280;42486;47.478;19.036;2023-02-10T17:38:08;102321.66;;;-0.79;81.93
56604;BME280;42486;47.478;19.036;2023-02-10T17:41:30;102323.31;;;-0.89;82.29